Terminal Aerodrome Forecast
Issued by NWS

Home | Current Version | Previous Version | Text Only | Print | Product List | Glossary On
Versions: 1 2 3 4 5 6 7 8 9 10 11 12 13 14 15 16 17 18 19 20 21 22 23 24 25 26 27 28 29 30 31 32 33 34 35 36 37 38 39 40 41 42 43 44 45 46 47 48 49 50
000
FTUS42 KILM 101731
TAFCRE
TAF
KCRE 101731Z 1018/1118 21012G17KT P6SM SCT250
     FM102100 21010KT P6SM SCT250
     FM110300 23008KT P6SM VCSH BKN080
     FM110500 33009KT 4SM -SHRA BKN015
     FM111100 36013G19KT P6SM OVC020
     FM111500 36013G20KT P6SM SCT020 BKN250=

USA.gov is the U.S. government's official web portal to all federal, state and local government web resources and services.